Time;durP1;ratioP1;P1;durP2;ratioP2;P2;SDS_P1;SDS_P2;PMS_P1;PMS_P2;Temp;Humidity;BMP_temperature;BMP_pressure;BME280_temperature;BME280_humidity;BME280_pressure;Samples;Min_cycle;Max_cycle;Signal;HPM_P1;HPM_P2
2022/10/14 17:03:37;;;;;;;0.10;0.10;;;;;;;17.53;64.13;100920.13;5086841;27;1862929;-83
2022/10/14 17:06:03;;;;;;;0.10;0.10;;;;;;;17.46;64.03;100924.91;5114293;28;20035;-82
2022/10/14 17:08:30;;;;;;;0.10;0.10;;;;;;;17.34;64.00;100914.78;5103485;28;20514;-84
2022/10/14 17:10:57;;;;;;;0.10;0.10;;;;;;;17.19;64.47;100926.22;5095146;28;20067;-83
2022/10/14 17:13:23;;;;;;;0.10;0.10;;;;;;;17.04;64.47;100928.66;5095417;28;20070;-83
2022/10/14 17:15:50;;;;;;;0.10;0.10;;;;;;;16.94;64.85;100932.69;5095003;28;20511;-83
2022/10/14 17:18:16;;;;;;;0.03;0.03;;;;;;;16.84;64.64;100936.72;5098567;28;20162;-83
2022/10/14 17:20:42;;;;;;;0.00;0.00;;;;;;;16.74;64.80;100930.91;5098874;28;20081;-83
2022/10/14 17:23:08;;;;;;;0.10;0.10;;;;;;;16.67;64.90;100940.97;5095676;28;20028;-82
2022/10/14 17:25:35;;;;;;;0.10;0.10;;;;;;;16.61;65.01;100941.25;5095186;28;20039;-83
2022/10/14 17:28:01;;;;;;;0.10;0.10;;;;;;;16.55;64.88;100942.41;5094897;28;20039;-83
2022/10/14 17:30:27;;;;;;;0.10;0.10;;;;;;;16.47;65.53;100929.38;5097012;28;20051;-84
2022/10/14 17:32:53;;;;;;;0.10;0.10;;;;;;;16.43;65.15;100941.09;5094637;28;20033;-83
2022/10/14 17:35:19;;;;;;;0.15;0.15;;;;;;;16.38;65.34;100945.78;5094122;28;20074;-83
2022/10/14 17:37:45;;;;;;;0.10;0.10;;;;;;;16.32;65.51;100952.28;5095426;28;20027;-83
2022/10/14 17:40:12;;;;;;;0.15;0.15;;;;;;;16.28;66.00;100947.13;5096026;28;20047;-84
2022/10/14 17:42:38;;;;;;;0.10;0.10;;;;;;;16.25;65.47;100944.56;5095994;28;20372;-83
2022/10/14 17:45:04;;;;;;;1.88;0.43;;;;;;;16.19;66.50;100948.38;5094911;28;20191;-83
2022/10/14 17:47:30;;;;;;;0.10;0.10;;;;;;;16.17;66.21;100934.19;5095292;28;20177;-82
2022/10/14 17:49:56;;;;;;;0.10;0.10;;;;;;;16.13;66.32;100944.16;5092087;28;20060;-82
2022/10/14 17:52:22;;;;;;;0.40;0.40;;;;;;;16.10;66.21;100936.28;5075830;28;20021;-82
2022/10/14 17:54:48;;;;;;;0.10;0.10;;;;;;;16.08;66.10;100938.13;5098999;28;20043;-83
2022/10/14 17:57:14;;;;;;;0.10;0.10;;;;;;;16.06;66.13;100939.97;5094853;28;20047;-83
2022/10/14 17:59:40;;;;;;;1.33;1.23;;;;;;;16.02;66.82;100946.41;5099734;28;20025;-81
2022/10/14 18:02:15;;;;;;;0.10;0.10;;;;;;;16.01;66.86;100941.97;5103417;28;20027;-83
2022/10/14 18:04:41;;;;;;;0.10;0.10;;;;;;;15.95;68.11;100934.22;5094043;28;20032;-83
2022/10/14 18:07:07;;;;;;;0.00;0.00;;;;;;;15.93;67.64;100925.41;5097548;28;20111;-82
2022/10/14 18:09:33;;;;;;;0.10;0.10;;;;;;;15.91;67.75;100913.91;5101104;28;20040;-83
2022/10/14 18:11:59;;;;;;;0.10;0.10;;;;;;;15.89;67.93;100911.31;5097881;28;20047;-82
2022/10/14 18:14:25;;;;;;;0.30;0.30;;;;;;;15.88;68.41;100908.69;5102220;28;20015;-83
2022/10/14 18:16:51;;;;;;;0.22;0.22;;;;;;;15.85;68.62;100899.88;5098100;28;20036;-83
2022/10/14 18:19:18;;;;;;;0.15;0.15;;;;;;;15.85;68.22;100915.03;5100149;28;20063;-82
2022/10/14 18:21:44;;;;;;;0.10;0.10;;;;;;;15.81;68.48;100914.28;5094714;28;20511;-83
2022/10/14 18:24:14;;;;;;;0.10;0.10;;;;;;;15.81;68.75;100914.28;5092803;28;20016;-84
2022/10/14 18:26:40;;;;;;;0.10;0.10;;;;;;;15.79;68.55;100915.25;5092616;28;20055;-83
2022/10/14 18:29:07;;;;;;;0.20;0.20;;;;;;;15.75;68.47;100914.50;5087112;28;20450;-83
2022/10/14 18:31:33;;;;;;;1.38;1.13;;;;;;;15.73;69.76;100924.38;5090931;28;20058;-82
2022/10/14 18:34:01;;;;;;;0.10;0.10;;;;;;;15.74;68.73;100923.47;5076327;28;20035;-82
2022/10/14 18:36:29;;;;;;;0.10;0.10;;;;;;;15.72;69.33;100911.94;5079646;28;20123;-83
2022/10/14 18:38:58;;;;;;;0.10;0.10;;;;;;;15.72;68.83;100903.09;5091064;28;20041;-83
2022/10/14 18:41:25;;;;;;;0.10;0.10;;;;;;;15.72;68.83;100905.75;5093310;28;20028;-82
2022/10/14 18:43:53;;;;;;;0.28;0.28;;;;;;;15.70;68.70;100905.78;5093184;28;20411;-83
2022/10/14 18:46:24;;;;;;;0.10;0.10;;;;;;;15.68;69.11;100897.00;5088304;28;20059;-83
2022/10/14 18:48:52;;;;;;;0.10;0.10;;;;;;;15.64;69.57;100908.75;5095593;28;20387;-83
2022/10/14 18:51:24;;;;;;;0.10;0.10;;;;;;;15.62;70.02;100913.25;5095782;28;20020;-83
2022/10/14 18:53:51;;;;;;;0.17;0.17;;;;;;;15.60;69.61;100915.13;5091426;28;20064;-83
2022/10/14 18:56:28;;;;;;;1.27;0.55;;;;;;;15.60;69.70;100913.34;5094007;28;20406;-83
2022/10/14 18:58:57;;;;;;;0.10;0.10;;;;;;;15.56;69.19;100909.03;5095187;28;20392;-83
2022/10/14 19:01:25;;;;;;;0.52;0.52;;;;;;;15.55;69.18;100909.94;5098308;28;20076;-83
2022/10/14 19:03:52;;;;;;;0.20;0.20;;;;;;;15.51;69.37;100914.56;5097328;28;20027;-83
2022/10/14 19:06:20;;;;;;;0.15;0.15;;;;;;;15.49;68.36;100900.41;5098327;28;20123;-82
2022/10/14 19:08:46;;;;;;;0.10;0.10;;;;;;;15.45;69.29;100909.47;5088487;28;20028;-82
2022/10/14 19:11:18;;;;;;;0.10;0.10;;;;;;;15.43;69.40;100908.66;5096927;28;20020;-82
2022/10/14 19:13:46;;;;;;;0.20;0.20;;;;;;;15.40;69.66;100903.41;5087522;28;20036;-83
2022/10/14 19:16:17;;;;;;;0.10;0.10;;;;;;;15.38;68.99;100894.63;5098811;28;20641;-82
2022/10/14 19:18:43;;;;;;;0.15;0.15;;;;;;;15.33;69.14;100891.25;5098335;28;20024;-82
2022/10/14 19:21:11;;;;;;;0.13;0.13;;;;;;;15.30;69.15;100892.25;5098899;28;20051;-81
2022/10/14 19:23:40;;;;;;;0.80;0.40;;;;;;;15.29;68.96;100900.28;5095826;28;20020;-81
2022/10/14 19:26:08;;;;;;;0.20;0.20;;;;;;;15.24;68.99;100900.50;5088050;28;20443;-82
2022/10/14 19:28:34;;;;;;;0.32;0.32;;;;;;;15.20;68.96;100898.84;5086831;28;20051;-81
2022/10/14 19:31:07;;;;;;;0.65;0.65;;;;;;;15.15;69.14;100893.72;5095424;28;20028;-81
2022/10/14 19:33:36;;;;;;;0.10;0.10;;;;;;;15.11;69.04;100902.75;5095936;28;20016;-81
2022/10/14 19:36:02;;;;;;;0.10;0.10;;;;;;;15.05;69.12;100900.31;5096257;28;20053;-82
2022/10/14 19:38:28;;;;;;;0.20;0.20;;;;;;;15.01;69.48;100906.69;5082973;28;20101;-81
2022/10/14 19:40:58;;;;;;;0.03;0.03;;;;;;;14.98;69.13;100901.50;5084645;28;20039;-81
2022/10/14 19:43:25;;;;;;;0.10;0.10;;;;;;;14.92;69.66;100901.72;5078571;28;20411;-82
2022/10/14 19:45:57;;;;;;;0.10;0.10;;;;;;;14.88;69.75;100891.16;5078366;28;20079;-83
2022/10/14 19:48:24;;;;;;;0.05;0.05;;;;;;;14.83;69.75;100895.78;5083815;28;20059;-84
2022/10/14 19:50:50;;;;;;;0.20;0.20;;;;;;;14.81;69.88;100902.09;5086383;28;20094;-81
2022/10/14 19:53:17;;;;;;;0.20;0.20;;;;;;;14.78;69.92;100908.44;5081813;28;20032;-81
2022/10/14 19:55:43;;;;;;;0.15;0.15;;;;;;;14.76;69.99;100896.94;5086979;28;20085;-83
2022/10/14 19:58:09;;;;;;;0.73;0.73;;;;;;;14.72;70.21;100896.16;5084794;28;20039;-84
2022/10/14 20:00:36;;;;;;;0.35;0.35;;;;;;;14.69;70.18;100885.63;5083692;28;20008;-83
2022/10/14 20:03:02;;;;;;;0.68;0.68;;;;;;;14.66;69.94;100883.06;5081400;28;20063;-82
2022/10/14 20:05:30;;;;;;;0.40;0.40;;;;;;;14.64;70.21;100881.34;5079322;28;20040;-82
2022/10/14 20:07:56;;;;;;;0.43;0.43;;;;;;;14.60;69.97;100874.38;5091839;28;20032;-81
2022/10/14 20:10:23;;;;;;;1.25;1.23;;;;;;;14.56;70.15;100874.50;5089793;28;20077;-81
2022/10/14 20:12:49;;;;;;;0.10;0.10;;;;;;;14.52;69.84;100877.34;5088795;28;20055;-81
2022/10/14 20:15:15;;;;;;;0.10;0.10;;;;;;;14.50;70.31;100874.72;5088694;28;20040;-81
2022/10/14 20:17:41;;;;;;;0.10;0.10;;;;;;;14.49;70.12;100875.66;5090716;28;20050;-81
2022/10/14 20:20:07;;;;;;;0.10;0.10;;;;;;;14.50;69.75;100874.72;5091162;28;20036;-82
2022/10/14 20:22:33;;;;;;;1.38;1.27;;;;;;;14.49;70.04;100877.44;5092342;28;20447;-82
2022/10/14 20:25:00;;;;;;;0.10;0.10;;;;;;;14.49;70.21;100878.31;5088766;28;20072;-81
2022/10/14 20:27:26;;;;;;;0.35;0.35;;;;;;;14.49;70.37;100877.44;5092333;28;20063;-81
2022/10/14 20:29:52;;;;;;;0.20;0.20;;;;;;;14.50;70.09;100877.38;5084398;28;20480;-82
2022/10/14 20:32:18;;;;;;;0.50;0.50;;;;;;;14.52;70.16;100882.69;5092047;28;20031;-81
2022/10/14 20:34:44;;;;;;;0.10;0.10;;;;;;;14.52;70.83;100870.19;5085156;28;20024;-82
2022/10/14 20:37:10;;;;;;;0.10;0.10;;;;;;;14.56;70.66;100873.63;5094019;28;20020;-81
2022/10/14 20:39:36;;;;;;;0.00;0.00;;;;;;;14.59;70.41;100872.66;5085842;28;20388;-82
2022/10/14 20:42:04;;;;;;;0.10;0.10;;;;;;;14.61;70.47;100877.00;5092551;28;20036;-80
2022/10/14 20:44:30;;;;;;;0.10;0.10;;;;;;;14.62;70.35;100878.75;5090288;28;20036;-79
2022/10/14 20:46:56;;;;;;;0.10;0.10;;;;;;;14.62;70.39;100877.88;5078836;28;20454;-81
2022/10/14 20:49:23;;;;;;;0.10;0.10;;;;;;;14.64;70.42;100882.22;5086106;28;20415;-82
2022/10/14 20:51:49;;;;;;;0.17;0.17;;;;;;;14.66;70.59;100879.53;5087836;28;20043;-81
2022/10/14 20:54:15;;;;;;;0.20;0.20;;;;;;;14.66;70.63;100874.19;5081869;28;20029;-81
2022/10/14 20:56:41;;;;;;;0.10;0.10;;;;;;;14.67;70.41;100875.94;5090453;28;20056;-80
2022/10/14 20:59:10;;;;;;;0.10;0.10;;;;;;;14.69;71.01;100874.97;5094687;28;20020;-81
2022/10/14 21:01:37;;;;;;;0.10;0.10;;;;;;;14.71;70.92;100873.09;5086658;28;20513;-81
2022/10/14 21:04:06;;;;;;;0.10;0.10;;;;;;;14.72;71.48;100882.84;5082916;28;20028;-82
2022/10/14 21:06:33;;;;;;;0.30;0.30;;;;;;;14.74;71.33;100880.09;5082847;28;20114;-80
2022/10/14 21:08:59;;;;;;;0.10;0.10;;;;;;;14.77;71.12;100882.69;5080276;28;20548;-81
2022/10/14 21:11:29;;;;;;;0.43;0.43;;;;;;;14.77;71.11;100877.34;5080456;28;20388;-82
2022/10/14 21:13:58;;;;;;;0.30;0.30;;;;;;;14.80;71.30;100885.22;5080148;28;20024;-81
2022/10/14 21:16:27;;;;;;;0.63;0.63;;;;;;;14.81;71.37;100881.63;5082978;28;20039;-81
2022/10/14 21:18:58;;;;;;;0.20;0.20;;;;;;;14.81;71.60;100878.97;5080518;28;20062;-81
2022/10/14 21:21:27;;;;;;;0.20;0.20;;;;;;;14.81;71.33;100883.44;5086222;28;20031;-80
2022/10/14 21:23:54;;;;;;;0.10;0.10;;;;;;;14.80;71.13;100871.03;5086038;28;20055;-81
2022/10/14 21:26:20;;;;;;;0.10;0.10;;;;;;;14.81;71.06;100883.44;5083787;28;20027;-80
2022/10/14 21:28:46;;;;;;;0.10;0.10;;;;;;;14.80;71.34;100876.34;5082680;28;20487;-81
2022/10/14 21:31:14;;;;;;;0.20;0.20;;;;;;;14.80;71.09;100871.88;5086729;28;20047;-81
2022/10/14 21:33:40;;;;;;;0.15;0.15;;;;;;;14.81;71.38;100875.44;5088163;28;20024;-81
2022/10/14 21:36:09;;;;;;;0.20;0.20;;;;;;;14.82;71.30;100869.19;5093049;28;20040;-82
2022/10/14 21:38:36;;;;;;;0.10;0.10;;;;;;;14.81;71.22;100865.63;5090493;28;20513;-81
2022/10/14 21:41:03;;;;;;;0.15;0.15;;;;;;;14.84;71.04;100864.63;5094252;28;20063;-82
2022/10/14 21:43:31;;;;;;;0.10;0.10;;;;;;;14.86;70.92;100870.78;5085096;28;20028;-81
2022/10/14 21:46:08;;;;;;;0.30;0.30;;;;;;;14.91;70.93;100859.97;5091226;28;20105;-81
2022/10/14 21:48:34;;;;;;;0.10;0.10;;;;;;;14.87;70.93;100862.72;5085458;28;20035;-81
2022/10/14 21:51:07;;;;;;;5.32;0.75;;;;;;;14.86;71.10;100858.31;5092467;28;20032;-81
2022/10/14 21:53:34;;;;;;;2.10;0.60;;;;;;;14.84;71.27;100857.53;5094273;28;20016;-81
2022/10/14 21:56:00;;;;;;;0.10;0.10;;;;;;;14.85;71.19;100859.25;5083089;28;20024;-82
2022/10/14 21:58:27;;;;;;;0.47;0.47;;;;;;;14.88;71.40;100851.13;5084491;28;20053;-82
2022/10/14 22:03:44;;;;;;;0.10;0.10;;;;;;;14.89;71.40;100854.66;5091194;27;20195;-80
2022/10/14 22:06:13;;;;;;;0.10;0.10;;;;;;;14.91;71.44;100854.63;5080885;28;20040;-81
2022/10/14 22:08:42;;;;;;;0.80;0.80;;;;;;;14.93;71.38;100850.06;5084218;28;20411;-80
2022/10/14 22:13:54;;;;;;;0.30;0.30;;;;;;;14.94;71.56;100847.38;5110125;27;20144;-79
2022/10/14 22:16:20;;;;;;;0.10;0.10;;;;;;;14.95;71.54;100843.75;5068894;28;20131;-78
2022/10/14 22:18:50;;;;;;;0.32;0.32;;;;;;;14.99;71.52;100844.50;5071056;28;20494;-79
2022/10/14 22:21:18;;;;;;;0.10;0.10;;;;;;;14.98;71.60;100837.47;5067772;28;20033;-79
2022/10/14 22:23:46;;;;;;;0.20;0.20;;;;;;;14.99;71.66;100845.41;5070373;28;20035;-79
2022/10/14 22:26:16;;;;;;;0.30;0.30;;;;;;;15.00;71.88;100838.25;5072485;28;20474;-79
2022/10/14 22:28:42;;;;;;;0.30;0.30;;;;;;;15.00;71.79;100838.25;5073935;28;20036;-79
2022/10/14 22:31:12;;;;;;;0.25;0.25;;;;;;;15.03;71.55;100846.16;5068222;28;20029;-80
2022/10/14 22:33:39;;;;;;;0.10;0.10;;;;;;;15.04;71.69;100842.53;5068405;28;20013;-80
2022/10/14 22:36:07;;;;;;;0.10;0.10;;;;;;;15.06;71.75;100846.03;5066222;28;20422;-80
2022/10/14 22:38:34;;;;;;;0.85;0.85;;;;;;;15.07;71.51;100837.09;5067079;28;20037;-79
2022/10/14 22:41:01;;;;;;;0.15;0.15;;;;;;;15.10;71.55;100842.28;5067463;28;20074;-80
2022/10/14 22:43:27;;;;;;;1.00;0.35;;;;;;;15.12;71.27;100835.09;5071352;28;20028;-79
2022/10/14 22:46:14;;;;;;;0.15;0.15;;;;;;;15.22;71.64;100834.75;5069654;28;20024;-79
2022/10/14 22:48:40;;;;;;;0.90;0.90;;;;;;;15.16;71.61;100828.72;5066202;28;20036;-79
2022/10/14 22:51:10;;;;;;;0.30;0.30;;;;;;;15.17;71.53;100817.09;5058263;28;20018;-79
2022/10/14 22:53:38;;;;;;;0.30;0.30;;;;;;;15.18;71.70;100812.66;5067927;28;20036;-79
2022/10/14 22:56:06;;;;;;;0.10;0.10;;;;;;;15.19;71.50;100814.41;5067219;28;20033;-79
2022/10/14 22:58:32;;;;;;;0.10;0.10;;;;;;;15.17;71.30;100805.56;5060966;28;20056;-79
2022/10/14 23:01:08;;;;;;;0.00;0.00;;;;;;;15.18;71.14;100812.66;5070475;28;20399;-81
2022/10/14 23:03:36;;;;;;;0.17;0.17;;;;;;;15.08;71.57;100804.16;5064771;28;20077;-79
2022/10/14 23:06:05;;;;;;;0.95;0.95;;;;;;;15.05;71.30;100806.91;5061901;28;20037;-80
2022/10/14 23:08:32;;;;;;;0.73;0.73;;;;;;;14.98;71.58;100806.31;5064462;28;20398;-80
2022/10/14 23:10:59;;;;;;;0.45;0.45;;;;;;;14.94;71.44;100804.69;5067457;28;20067;-80
2022/10/14 23:13:25;;;;;;;0.20;0.20;;;;;;;14.92;71.28;100811.00;5067800;28;20055;-79
2022/10/14 23:16:00;;;;;;;0.65;0.65;;;;;;;14.92;71.54;100805.69;5065609;28;20558;-80
2022/10/14 23:18:28;;;;;;;0.10;0.10;;;;;;;14.85;71.50;100811.25;5066430;28;20543;-80
2022/10/14 23:20:55;;;;;;;0.50;0.50;;;;;;;14.81;71.68;100814.09;5063224;28;20115;-80
2022/10/14 23:23:21;;;;;;;0.10;0.10;;;;;;;14.76;71.71;100806.25;5066610;28;20402;-78
2022/10/14 23:25:47;;;;;;;4.97;1.55;;;;;;;14.79;71.94;100811.50;5054256;28;20120;-80
2022/10/14 23:28:14;;;;;;;0.65;0.65;;;;;;;14.78;72.08;100807.06;5052420;28;20513;-79
2022/10/14 23:30:40;;;;;;;0.45;0.20;;;;;;;14.73;71.80;100809.06;5053564;28;20021;-79
2022/10/14 23:33:09;;;;;;;0.08;0.08;;;;;;;14.78;72.16;100816.84;5057615;28;20025;-79
2022/10/14 23:35:37;;;;;;;0.17;0.17;;;;;;;14.77;72.20;100815.13;5057044;28;20506;-79
2022/10/14 23:38:03;;;;;;;0.25;0.25;;;;;;;14.78;72.38;100814.19;5054937;28;20024;-79
2022/10/14 23:40:33;;;;;;;0.10;0.10;;;;;;;14.81;72.23;100822.09;5053974;28;20104;-79
2022/10/14 23:42:59;;;;;;;0.60;0.60;;;;;;;14.82;71.83;100811.34;5054433;28;20103;-79
2022/10/14 23:45:28;;;;;;;0.85;0.82;;;;;;;14.85;72.10;100821.03;5060990;28;20029;-79
2022/10/14 23:47:54;;;;;;;0.30;0.30;;;;;;;14.88;71.74;100811.13;5059893;28;20025;-79
2022/10/14 23:50:21;;;;;;;0.10;0.10;;;;;;;14.90;72.16;100810.19;5053572;28;20048;-79
2022/10/14 23:52:47;;;;;;;0.10;0.10;;;;;;;14.91;72.20;100806.59;5053854;28;20029;-79
2022/10/14 23:55:13;;;;;;;0.32;0.32;;;;;;;14.92;71.72;100805.69;5055381;28;20102;-78
2022/10/14 23:57:39;;;;;;;0.10;0.10;;;;;;;14.92;72.18;100803.88;5057828;28;20064;-79
